Time;durP1;ratioP1;P1;durP2;ratioP2;P2;SDS_P1;SDS_P2;PMS_P1;PMS_P2;Temp;Humidity;BMP_temperature;BMP_pressure;BME280_temperature;BME280_humidity;BME280_pressure;Samples;Min_cycle;Max_cycle;Signal;HPM_P1;HPM_P2
2024/02/19 00:02:02;;;;;;;2.65;2.20;;;;;;;;;;5021719;28;20111;-62
2024/02/19 00:04:30;;;;;;;2.72;2.13;;;;;;;;;;5021920;28;20049;-62
2024/02/19 00:06:59;;;;;;;3.33;2.17;;;;;;;;;;5022084;28;20077;-66
2024/02/19 00:09:27;;;;;;;2.85;1.83;;;;;;;;;;5020093;28;20140;-62
2024/02/19 00:11:55;;;;;;;2.92;1.85;;;;;;;;;;5020519;28;20541;-66
2024/02/19 00:14:24;;;;;;;2.78;1.75;;;;;;;;;;5019631;28;20037;-61
2024/02/19 00:16:54;;;;;;;2.60;1.63;;;;;;;;;;5022724;28;20205;-66
2024/02/19 00:19:22;;;;;;;1.70;1.40;;;;;;;;;;5020778;28;20069;-63
2024/02/19 00:21:51;;;;;;;2.38;1.58;;;;;;;;;;5021094;28;20046;-63
2024/02/19 00:24:19;;;;;;;3.03;1.40;;;;;;;;;;5021574;28;20155;-68
2024/02/19 00:26:48;;;;;;;2.22;1.58;;;;;;;;;;5021761;28;20073;-62
2024/02/19 00:29:16;;;;;;;2.00;1.20;;;;;;;;;;5021822;28;20053;-69
2024/02/19 00:31:45;;;;;;;2.90;1.65;;;;;;;;;;5021890;28;20609;-61
2024/02/19 00:34:14;;;;;;;2.05;1.40;;;;;;;;;;5022887;28;20187;-64
2024/02/19 00:36:43;;;;;;;1.67;1.30;;;;;;;;;;5021321;28;20343;-66
2024/02/19 00:39:13;;;;;;;1.95;1.30;;;;;;;;;;5020090;28;20077;-60
2024/02/19 00:41:41;;;;;;;1.58;1.00;;;;;;;;;;5021105;28;20111;-61
2024/02/19 00:44:09;;;;;;;1.70;1.25;;;;;;;;;;5019773;28;20122;-63
2024/02/19 00:46:38;;;;;;;1.48;1.20;;;;;;;;;;5021029;28;20126;-66
2024/02/19 00:49:06;;;;;;;1.45;1.20;;;;;;;;;;5020571;28;20646;-61
2024/02/19 00:51:36;;;;;;;1.50;1.33;;;;;;;;;;5021015;28;20140;-62
2024/02/19 00:54:05;;;;;;;1.30;0.85;;;;;;;;;;5023058;28;20057;-61
2024/02/19 00:56:33;;;;;;;3.60;1.40;;;;;;;;;;5018456;28;21263;-60
2024/02/19 00:59:02;;;;;;;1.20;0.88;;;;;;;;;;5021903;28;20077;-61
2024/02/19 01:01:32;;;;;;;1.00;0.90;;;;;;;;;;5023437;28;20485;-61
2024/02/19 01:04:00;;;;;;;1.60;0.80;;;;;;;;;;5024216;28;20045;-65
2024/02/19 01:06:29;;;;;;;1.15;0.95;;;;;;;;;;5024123;28;20052;-61
2024/02/19 01:08:58;;;;;;;1.55;1.10;;;;;;;;;;5022852;28;20296;-66
2024/02/19 01:11:27;;;;;;;1.15;1.05;;;;;;;;;;5022083;28;20045;-63
2024/02/19 01:13:55;;;;;;;1.13;0.95;;;;;;;;;;5025128;28;20064;-60
2024/02/19 01:16:24;;;;;;;0.90;0.80;;;;;;;;;;5022899;28;20045;-62
2024/02/19 01:18:52;;;;;;;1.00;0.90;;;;;;;;;;5021844;28;20506;-61
2024/02/19 01:21:21;;;;;;;0.80;0.70;;;;;;;;;;5023635;28;20128;-62
2024/02/19 01:23:49;;;;;;;1.25;1.00;;;;;;;;;;5021672;28;20041;-62
2024/02/19 01:26:21;;;;;;;0.77;0.77;;;;;;;;;;5022664;28;20056;-62
2024/02/19 01:28:49;;;;;;;0.70;0.70;;;;;;;;;;5023913;28;20049;-61
2024/02/19 01:31:17;;;;;;;0.75;0.75;;;;;;;;;;5021951;28;20391;-67
2024/02/19 01:33:46;;;;;;;0.70;0.70;;;;;;;;;;5025557;28;20478;-64
2024/02/19 01:36:15;;;;;;;0.68;0.68;;;;;;;;;;5026777;28;20053;-61
2024/02/19 01:38:43;;;;;;;1.10;0.75;;;;;;;;;;5025486;28;20077;-61
2024/02/19 01:41:12;;;;;;;0.50;0.50;;;;;;;;;;5027082;28;20049;-63
2024/02/19 01:43:43;;;;;;;0.73;0.50;;;;;;;;;;5026641;28;20449;-61
2024/02/19 01:46:14;;;;;;;0.82;0.70;;;;;;;;;;5025428;28;20057;-61
2024/02/19 01:48:42;;;;;;;0.80;0.70;;;;;;;;;;5024905;28;20085;-63
2024/02/19 01:51:11;;;;;;;1.15;0.70;;;;;;;;;;5026287;28;20044;-62
2024/02/19 01:53:41;;;;;;;0.47;0.47;;;;;;;;;;5026379;28;20060;-63
2024/02/19 01:56:09;;;;;;;0.40;0.40;;;;;;;;;;5026924;28;20049;-63
2024/02/19 01:58:38;;;;;;;1.95;0.65;;;;;;;;;;5022011;28;20123;-64
2024/02/19 02:01:08;;;;;;;0.77;0.50;;;;;;;;;;5024231;28;20048;-65
2024/02/19 02:03:37;;;;;;;0.50;0.50;;;;;;;;;;5023104;28;20049;-65
2024/02/19 02:06:06;;;;;;;0.40;0.40;;;;;;;;;;5024474;28;20135;-60
2024/02/19 02:08:39;;;;;;;0.40;0.40;;;;;;;;;;5024400;28;20041;-61
2024/02/19 02:11:07;;;;;;;0.57;0.43;;;;;;;;;;5032556;28;20064;-67
2024/02/19 02:13:36;;;;;;;1.88;0.43;;;;;;;;;;5023945;28;20147;-62
2024/02/19 02:16:06;;;;;;;1.20;0.50;;;;;;;;;;5022213;28;20061;-60
2024/02/19 02:18:37;;;;;;;0.40;0.40;;;;;;;;;;5022979;28;20049;-61
2024/02/19 02:21:05;;;;;;;0.50;0.50;;;;;;;;;;5024176;28;20057;-65
2024/02/19 02:23:34;;;;;;;0.50;0.50;;;;;;;;;;5024420;28;20108;-60
2024/02/19 02:26:03;;;;;;;1.20;0.88;;;;;;;;;;5023893;28;20057;-66
2024/02/19 02:28:32;;;;;;;2.85;0.60;;;;;;;;;;5023523;28;20041;-60
2024/02/19 02:31:01;;;;;;;0.50;0.50;;;;;;;;;;5024513;28;20057;-61
2024/02/19 02:33:29;;;;;;;0.40;0.40;;;;;;;;;;5022762;28;20060;-60
2024/02/19 02:35:58;;;;;;;0.50;0.50;;;;;;;;;;5023484;28;20049;-63
2024/02/19 02:38:26;;;;;;;0.30;0.30;;;;;;;;;;5023325;28;20478;-61
2024/02/19 02:40:54;;;;;;;0.38;0.38;;;;;;;;;;5023372;28;20415;-60
2024/02/19 02:43:23;;;;;;;0.40;0.40;;;;;;;;;;5021065;28;20045;-59
2024/02/19 02:45:53;;;;;;;0.40;0.40;;;;;;;;;;5022727;28;20049;-63
2024/02/19 02:48:21;;;;;;;0.50;0.40;;;;;;;;;;5020890;28;20487;-63
2024/02/19 02:50:50;;;;;;;0.30;0.30;;;;;;;;;;5022957;28;20052;-64
2024/02/19 02:53:18;;;;;;;0.43;0.40;;;;;;;;;;5022945;28;20124;-61
2024/02/19 02:55:46;;;;;;;0.40;0.40;;;;;;;;;;5022841;28;20053;-65
2024/02/19 02:58:15;;;;;;;0.50;0.50;;;;;;;;;;5022326;28;20135;-61
2024/02/19 03:00:43;;;;;;;1.75;0.40;;;;;;;;;;5020585;28;20053;-61
2024/02/19 03:03:13;;;;;;;0.85;0.52;;;;;;;;;;5022664;28;20045;-65
2024/02/19 03:05:42;;;;;;;0.40;0.40;;;;;;;;;;5023657;28;20048;-61
2024/02/19 03:08:10;;;;;;;0.40;0.40;;;;;;;;;;5022403;28;20073;-61
2024/02/19 03:10:39;;;;;;;0.45;0.38;;;;;;;;;;5021904;28;20056;-61
2024/02/19 03:13:07;;;;;;;0.40;0.40;;;;;;;;;;5021277;28;20041;-62
2024/02/19 03:15:35;;;;;;;0.30;0.30;;;;;;;;;;5023759;28;20056;-62
2024/02/19 03:18:04;;;;;;;0.32;0.32;;;;;;;;;;5020920;28;20038;-60
2024/02/19 03:20:34;;;;;;;0.30;0.30;;;;;;;;;;5022535;28;20046;-66
2024/02/19 03:23:03;;;;;;;0.43;0.43;;;;;;;;;;5023407;28;20049;-59
2024/02/19 03:25:32;;;;;;;0.93;0.40;;;;;;;;;;5021560;28;20198;-63
2024/02/19 03:28:00;;;;;;;0.30;0.30;;;;;;;;;;5022282;28;20152;-61
2024/02/19 03:30:30;;;;;;;0.40;0.40;;;;;;;;;;5022828;28;20460;-62
2024/02/19 03:32:58;;;;;;;0.40;0.40;;;;;;;;;;5023543;28;20197;-61
2024/02/19 03:35:27;;;;;;;0.60;0.40;;;;;;;;;;5024769;28;20049;-60
2024/02/19 03:37:56;;;;;;;0.40;0.40;;;;;;;;;;5022359;28;20134;-63
2024/02/19 03:40:25;;;;;;;1.40;0.40;;;;;;;;;;5022818;28;20076;-62
2024/02/19 03:42:53;;;;;;;0.43;0.43;;;;;;;;;;5020306;28;20144;-65
2024/02/19 03:45:22;;;;;;;0.40;0.40;;;;;;;;;;5019543;28;20041;-60
2024/02/19 03:47:50;;;;;;;0.40;0.40;;;;;;;;;;5023364;28;20068;-64
2024/02/19 03:50:20;;;;;;;0.40;0.40;;;;;;;;;;5024131;28;20712;-61
2024/02/19 03:52:48;;;;;;;0.30;0.30;;;;;;;;;;5022417;28;20041;-64
2024/02/19 03:55:18;;;;;;;0.30;0.30;;;;;;;;;;5024507;28;20090;-63
2024/02/19 03:57:47;;;;;;;0.40;0.40;;;;;;;;;;5021033;28;20071;-60
2024/02/19 04:00:15;;;;;;;0.40;0.40;;;;;;;;;;5022145;28;20119;-61
2024/02/19 04:02:43;;;;;;;0.40;0.40;;;;;;;;;;5024589;28;20060;-61
2024/02/19 04:05:12;;;;;;;0.35;0.35;;;;;;;;;;5022793;28;20125;-62
2024/02/19 04:07:40;;;;;;;0.50;0.50;;;;;;;;;;5022310;28;20065;-65
2024/02/19 04:10:09;;;;;;;0.40;0.40;;;;;;;;;;5022449;28;20120;-64
2024/02/19 04:12:39;;;;;;;0.40;0.40;;;;;;;;;;5023588;28;20045;-61
2024/02/19 04:15:08;;;;;;;0.40;0.40;;;;;;;;;;5024694;28;20541;-61
2024/02/19 04:17:36;;;;;;;0.30;0.30;;;;;;;;;;5024107;28;20041;-63
2024/02/19 04:20:05;;;;;;;0.40;0.40;;;;;;;;;;5022883;28;20054;-63
2024/02/19 04:22:33;;;;;;;0.40;0.40;;;;;;;;;;5024037;28;20380;-62
2024/02/19 04:25:02;;;;;;;0.30;0.30;;;;;;;;;;5024658;28;20045;-60
2024/02/19 04:27:30;;;;;;;0.40;0.40;;;;;;;;;;5023663;28;20100;-63
2024/02/19 04:30:00;;;;;;;0.50;0.50;;;;;;;;;;5023076;28;20175;-61
2024/02/19 04:32:29;;;;;;;0.68;0.50;;;;;;;;;;5021919;28;20041;-61
2024/02/19 04:34:57;;;;;;;2.05;0.50;;;;;;;;;;5024199;28;20053;-63
2024/02/19 04:37:26;;;;;;;0.40;0.40;;;;;;;;;;5022420;28;20131;-66
2024/02/19 04:39:54;;;;;;;0.40;0.40;;;;;;;;;;5022544;28;20057;-62
2024/02/19 04:42:23;;;;;;;0.50;0.50;;;;;;;;;;5022739;28;20041;-62
2024/02/19 04:44:51;;;;;;;0.63;0.47;;;;;;;;;;5020338;28;20042;-62
2024/02/19 04:47:21;;;;;;;0.40;0.40;;;;;;;;;;5020185;28;20050;-62
2024/02/19 04:49:49;;;;;;;0.63;0.40;;;;;;;;;;5019136;28;20073;-64
2024/02/19 04:52:18;;;;;;;0.85;0.40;;;;;;;;;;5021611;28;20057;-68
2024/02/19 04:54:46;;;;;;;0.52;0.52;;;;;;;;;;5020957;28;20061;-62
2024/02/19 04:57:15;;;;;;;0.40;0.40;;;;;;;;;;5020197;28;20054;-63
2024/02/19 04:59:43;;;;;;;0.40;0.40;;;;;;;;;;5021371;28;21266;-62
2024/02/19 05:02:11;;;;;;;0.65;0.50;;;;;;;;;;5019421;28;20053;-64
2024/02/19 05:04:41;;;;;;;0.60;0.60;;;;;;;;;;5021720;28;20071;-63
2024/02/19 05:07:10;;;;;;;0.98;0.60;;;;;;;;;;5020427;28;20111;-61
2024/02/19 05:09:39;;;;;;;0.50;0.50;;;;;;;;;;5022666;28;20061;-61
2024/02/19 05:12:08;;;;;;;0.50;0.50;;;;;;;;;;5025776;28;20407;-62
2024/02/19 05:14:36;;;;;;;0.73;0.60;;;;;;;;;;5026214;28;20122;-63
2024/02/19 05:17:05;;;;;;;1.83;0.70;;;;;;;;;;5023967;28;20155;-60
2024/02/19 05:19:33;;;;;;;0.50;0.50;;;;;;;;;;5024981;28;20403;-62
2024/02/19 05:22:03;;;;;;;1.45;0.60;;;;;;;;;;5023844;28;20422;-62
2024/02/19 05:24:32;;;;;;;0.50;0.50;;;;;;;;;;5026588;28;20111;-60
2024/02/19 05:27:00;;;;;;;0.60;0.55;;;;;;;;;;5025370;28;20050;-59
2024/02/19 05:29:29;;;;;;;0.50;0.50;;;;;;;;;;5025637;28;20069;-63
2024/02/19 05:31:59;;;;;;;0.68;0.68;;;;;;;;;;5025933;28;20053;-60
2024/02/19 05:34:28;;;;;;;3.72;0.70;;;;;;;;;;5024613;28;20490;-63
2024/02/19 05:36:57;;;;;;;2.78;0.73;;;;;;;;;;5023864;28;20140;-61
2024/02/19 05:39:26;;;;;;;0.82;0.70;;;;;;;;;;5025771;28;20077;-61
2024/02/19 05:41:55;;;;;;;0.60;0.60;;;;;;;;;;5032417;28;20057;-60
2024/02/19 05:44:23;;;;;;;1.13;0.70;;;;;;;;;;5032201;28;20454;-60
2024/02/19 05:46:52;;;;;;;1.02;0.80;;;;;;;;;;5027872;28;20336;-62
2024/02/19 05:49:20;;;;;;;0.80;0.80;;;;;;;;;;5031816;28;20387;-60
2024/02/19 05:51:49;;;;;;;0.68;0.68;;;;;;;;;;5032730;28;20045;-59
2024/02/19 05:54:17;;;;;;;0.50;0.50;;;;;;;;;;5031352;28;20099;-60
2024/02/19 05:56:47;;;;;;;0.68;0.68;;;;;;;;;;5032008;28;20053;-63
2024/02/19 05:59:15;;;;;;;1.50;0.70;;;;;;;;;;5031002;28;20049;-64
2024/02/19 06:01:44;;;;;;;0.82;0.80;;;;;;;;;;5028958;28;20046;-61
2024/02/19 06:04:12;;;;;;;1.17;0.77;;;;;;;;;;5031461;28;20057;-60
2024/02/19 06:06:41;;;;;;;1.05;0.70;;;;;;;;;;5030616;28;20072;-59
2024/02/19 06:09:09;;;;;;;0.80;0.70;;;;;;;;;;5030473;28;20357;-61
2024/02/19 06:11:44;;;;;;;0.77;0.70;;;;;;;;;;5027613;28;20430;-63
2024/02/19 06:14:14;;;;;;;0.77;0.70;;;;;;;;;;5032378;28;20450;-63
2024/02/19 06:16:42;;;;;;;0.90;0.80;;;;;;;;;;5027480;28;20056;-63
2024/02/19 06:19:10;;;;;;;1.00;0.90;;;;;;;;;;5032277;28;20041;-60
2024/02/19 06:21:39;;;;;;;0.70;0.70;;;;;;;;;;5030743;28;20119;-61
2024/02/19 06:24:08;;;;;;;2.35;0.70;;;;;;;;;;5030838;28;20053;-62
2024/02/19 06:26:36;;;;;;;2.45;0.90;;;;;;;;;;5018537;28;20502;-60
2024/02/19 06:29:05;;;;;;;0.70;0.70;;;;;;;;;;5030896;28;20061;-63
2024/02/19 06:31:37;;;;;;;0.70;0.70;;;;;;;;;;5029075;28;20124;-64
2024/02/19 06:34:06;;;;;;;1.27;1.02;;;;;;;;;;5029926;28;20499;-62
2024/02/19 06:36:34;;;;;;;1.58;0.98;;;;;;;;;;5028277;28;20049;-62
2024/02/19 06:39:02;;;;;;;0.75;0.73;;;;;;;;;;5025079;28;20103;-60
2024/02/19 06:41:31;;;;;;;0.70;0.70;;;;;;;;;;5029597;28;20045;-60
2024/02/19 06:43:59;;;;;;;0.80;0.70;;;;;;;;;;5031370;28;20111;-62
2024/02/19 06:46:28;;;;;;;1.08;0.88;;;;;;;;;;5027404;28;20076;-64
2024/02/19 06:48:59;;;;;;;0.80;0.80;;;;;;;;;;5028395;28;20610;-61
2024/02/19 06:51:28;;;;;;;1.30;0.80;;;;;;;;;;5024791;28;20073;-62
2024/02/19 06:53:57;;;;;;;0.65;0.65;;;;;;;;;;5026263;28;20045;-61
2024/02/19 06:56:25;;;;;;;1.38;1.02;;;;;;;;;;5029292;28;20495;-61
2024/02/19 06:58:53;;;;;;;0.77;0.70;;;;;;;;;;5025961;28;20209;-61
2024/02/19 07:01:22;;;;;;;0.70;0.70;;;;;;;;;;5024981;28;20131;-64
2024/02/19 07:03:50;;;;;;;0.82;0.70;;;;;;;;;;5029512;28;20092;-63
2024/02/19 07:06:20;;;;;;;1.98;0.93;;;;;;;;;;5024942;28;20060;-61
2024/02/19 07:08:49;;;;;;;0.70;0.70;;;;;;;;;;5028416;28;20430;-61
2024/02/19 07:11:18;;;;;;;1.60;0.70;;;;;;;;;;5024477;28;20045;-61
2024/02/19 07:13:49;;;;;;;0.90;0.73;;;;;;;;;;5029978;28;20046;-62
2024/02/19 07:16:17;;;;;;;0.70;0.70;;;;;;;;;;5034351;28;20055;-63
2024/02/19 07:18:46;;;;;;;0.65;0.65;;;;;;;;;;5033684;28;20073;-61
2024/02/19 07:21:15;;;;;;;1.40;0.70;;;;;;;;;;5030091;28;20081;-63
2024/02/19 07:23:45;;;;;;;0.75;0.60;;;;;;;;;;5030230;28;20077;-65
2024/02/19 07:26:13;;;;;;;1.73;0.80;;;;;;;;;;5030435;28;20103;-63
2024/02/19 07:28:42;;;;;;;0.70;0.70;;;;;;;;;;5029162;28;20052;-61
2024/02/19 07:31:10;;;;;;;0.63;0.63;;;;;;;;;;5023884;28;20041;-61
2024/02/19 07:33:39;;;;;;;0.50;0.50;;;;;;;;;;5033004;28;20128;-61
2024/02/19 07:36:08;;;;;;;0.68;0.60;;;;;;;;;;5021633;28;20060;-65
2024/02/19 07:38:36;;;;;;;0.80;0.80;;;;;;;;;;5028924;28;20049;-61
2024/02/19 07:41:06;;;;;;;0.60;0.60;;;;;;;;;;5029294;28;20053;-61
2024/02/19 07:43:34;;;;;;;0.60;0.60;;;;;;;;;;5029811;28;20081;-61
2024/02/19 07:46:03;;;;;;;0.82;0.82;;;;;;;;;;5030149;28;20068;-61
2024/02/19 07:48:32;;;;;;;2.38;0.70;;;;;;;;;;5028627;28;20055;-61
2024/02/19 07:51:00;;;;;;;0.70;0.70;;;;;;;;;;5026313;28;20498;-63
2024/02/19 07:53:28;;;;;;;0.90;0.57;;;;;;;;;;5030886;28;20092;-62
2024/02/19 07:56:03;;;;;;;0.50;0.50;;;;;;;;;;5026152;28;20125;-61
2024/02/19 07:58:33;;;;;;;0.80;0.70;;;;;;;;;;5029816;28;20049;-60
2024/02/19 08:01:03;;;;;;;0.80;0.60;;;;;;;;;;5026403;28;20050;-62
2024/02/19 08:03:33;;;;;;;1.30;1.15;;;;;;;;;;5028663;28;20414;-63
2024/02/19 08:06:01;;;;;;;0.60;0.60;;;;;;;;;;5028559;28;20053;-61
2024/02/19 08:08:30;;;;;;;0.70;0.70;;;;;;;;;;5028793;28;20041;-60
2024/02/19 08:10:59;;;;;;;2.65;0.82;;;;;;;;;;5029814;28;20518;-61
2024/02/19 08:13:27;;;;;;;1.02;0.90;;;;;;;;;;5029736;28;20046;-62
2024/02/19 08:15:57;;;;;;;1.55;0.90;;;;;;;;;;5029152;28;20136;-64
2024/02/19 08:18:26;;;;;;;0.77;0.73;;;;;;;;;;5028586;28;20049;-60
2024/02/19 08:20:54;;;;;;;0.60;0.60;;;;;;;;;;5017105;28;20132;-61
2024/02/19 08:23:23;;;;;;;2.25;0.80;;;;;;;;;;5029851;28;20092;-62
2024/02/19 08:25:51;;;;;;;0.60;0.60;;;;;;;;;;5026963;28;20137;-68
2024/02/19 08:28:20;;;;;;;0.70;0.70;;;;;;;;;;5025537;28;20042;-62
2024/02/19 08:30:48;;;;;;;1.25;0.80;;;;;;;;;;5022091;28;20080;-61
2024/02/19 08:33:18;;;;;;;1.27;0.77;;;;;;;;;;5029647;28;20107;-61
2024/02/19 08:35:46;;;;;;;1.15;0.82;;;;;;;;;;5029513;28;20411;-60
2024/02/19 08:38:15;;;;;;;0.77;0.77;;;;;;;;;;5029162;28;20132;-61
2024/02/19 08:40:43;;;;;;;1.20;0.90;;;;;;;;;;5028015;28;20506;-61
2024/02/19 08:43:12;;;;;;;0.80;0.80;;;;;;;;;;5038276;28;20049;-60
2024/02/19 08:45:40;;;;;;;1.90;1.05;;;;;;;;;;5028434;28;20053;-60
2024/02/19 08:48:09;;;;;;;1.00;0.82;;;;;;;;;;5027795;28;20537;-60
2024/02/19 08:50:39;;;;;;;2.90;0.90;;;;;;;;;;5027008;28;20139;-60
2024/02/19 08:53:07;;;;;;;0.80;0.80;;;;;;;;;;5028722;28;20052;-60
2024/02/19 08:55:36;;;;;;;1.02;0.88;;;;;;;;;;5028177;28;20041;-62
2024/02/19 08:58:06;;;;;;;1.20;0.82;;;;;;;;;;5029241;28;20061;-59
2024/02/19 09:00:34;;;;;;;2.17;0.90;;;;;;;;;;5021185;28;20506;-60
2024/02/19 09:03:04;;;;;;;2.67;0.98;;;;;;;;;;5028914;28;20046;-63
2024/02/19 09:05:33;;;;;;;1.13;0.98;;;;;;;;;;5028960;28;20076;-62
2024/02/19 09:08:03;;;;;;;1.27;0.95;;;;;;;;;;5023562;28;20049;-63
2024/02/19 09:10:31;;;;;;;1.45;1.05;;;;;;;;;;5021510;28;20429;-60
2024/02/19 09:13:01;;;;;;;1.13;0.90;;;;;;;;;;5031146;28;20413;-60
2024/02/19 09:15:29;;;;;;;1.58;0.85;;;;;;;;;;5027321;28;20053;-62
2024/02/19 09:17:58;;;;;;;0.80;0.80;;;;;;;;;;5026763;28;20111;-64
2024/02/19 09:20:26;;;;;;;1.38;1.20;;;;;;;;;;5025869;28;20056;-63
2024/02/19 09:22:55;;;;;;;1.17;0.90;;;;;;;;;;5026279;28;20049;-61
2024/02/19 09:25:25;;;;;;;1.30;0.93;;;;;;;;;;5025697;28;20112;-61
2024/02/19 09:27:54;;;;;;;3.90;0.98;;;;;;;;;;5024103;28;20395;-61
2024/02/19 09:30:23;;;;;;;1.20;1.10;;;;;;;;;;5028100;28;20068;-61
2024/02/19 09:32:51;;;;;;;2.60;1.00;;;;;;;;;;5028363;28;20533;-61
2024/02/19 09:35:20;;;;;;;5.07;1.00;;;;;;;;;;5036396;28;20053;-60
2024/02/19 09:37:49;;;;;;;2.50;0.80;;;;;;;;;;5027825;28;20053;-60
2024/02/19 09:40:18;;;;;;;1.45;0.95;;;;;;;;;;5026603;28;20510;-63
2024/02/19 09:42:48;;;;;;;2.08;1.20;;;;;;;;;;5028099;28;20046;-61
2024/02/19 09:45:16;;;;;;;1.65;1.00;;;;;;;;;;5028583;28;20084;-62
2024/02/19 09:47:45;;;;;;;1.02;0.70;;;;;;;;;;5027815;28;20491;-60
2024/02/19 09:50:14;;;;;;;2.13;0.93;;;;;;;;;;5028402;28;20521;-60
2024/02/19 09:52:43;;;;;;;1.35;0.82;;;;;;;;;;5028043;28;20049;-62
2024/02/19 09:55:12;;;;;;;1.63;0.90;;;;;;;;;;5031385;28;20132;-62
2024/02/19 09:57:40;;;;;;;1.45;0.90;;;;;;;;;;5030842;28;20329;-65
2024/02/19 10:00:11;;;;;;;1.80;0.80;;;;;;;;;;5029061;28;20076;-60
2024/02/19 10:02:39;;;;;;;1.10;0.82;;;;;;;;;;5029344;28;20103;-64
2024/02/19 10:05:11;;;;;;;0.73;0.70;;;;;;;;;;5031006;28;20088;-63
2024/02/19 10:07:41;;;;;;;0.70;0.65;;;;;;;;;;5029888;28;20060;-62
2024/02/19 10:10:10;;;;;;;1.15;1.05;;;;;;;;;;5027000;28;20037;-61
2024/02/19 10:12:40;;;;;;;3.30;0.82;;;;;;;;;;5039596;28;20448;-60
2024/02/19 10:15:11;;;;;;;0.80;0.80;;;;;;;;;;5032103;28;20049;-61
2024/02/19 10:17:39;;;;;;;0.70;0.70;;;;;;;;;;5030904;28;20513;-63
2024/02/19 10:20:08;;;;;;;0.65;0.60;;;;;;;;;;5031196;28;20402;-62
2024/02/19 10:22:36;;;;;;;0.57;0.50;;;;;;;;;;5032356;28;20414;-61
2024/02/19 10:25:07;;;;;;;0.90;0.90;;;;;;;;;;5032119;28;20102;-60
2024/02/19 10:27:36;;;;;;;0.70;0.70;;;;;;;;;;5031359;28;20501;-60
2024/02/19 10:30:08;;;;;;;1.40;0.57;;;;;;;;;;5030836;28;20061;-61
2024/02/19 10:32:40;;;;;;;0.80;0.65;;;;;;;;;;5030723;28;20056;-64
2024/02/19 10:35:09;;;;;;;2.03;0.70;;;;;;;;;;5031282;28;20354;-62
2024/02/19 10:37:38;;;;;;;0.55;0.55;;;;;;;;;;5031304;28;20053;-61
2024/02/19 10:40:10;;;;;;;0.73;0.70;;;;;;;;;;5030727;28;20369;-61
2024/02/19 10:42:39;;;;;;;1.17;0.70;;;;;;;;;;5027654;28;20427;-63
2024/02/19 10:45:09;;;;;;;0.70;0.70;;;;;;;;;;5031049;28;20140;-62
2024/02/19 10:47:39;;;;;;;1.38;0.80;;;;;;;;;;5039920;28;20057;-62
2024/02/19 10:50:08;;;;;;;4.88;0.80;;;;;;;;;;5030924;28;20076;-61
2024/02/19 10:52:39;;;;;;;1.05;0.77;;;;;;;;;;5030284;28;20191;-60
2024/02/19 10:55:09;;;;;;;1.85;0.60;;;;;;;;;;5030496;28;20054;-63
2024/02/19 10:57:49;;;;;;;2.55;0.80;;;;;;;;;;5030237;28;20381;-61
2024/02/19 11:00:18;;;;;;;1.58;0.60;;;;;;;;;;5030102;28;20112;-62
2024/02/19 11:02:48;;;;;;;1.00;0.60;;;;;;;;;;5031090;28;20092;-61
2024/02/19 11:05:17;;;;;;;0.98;0.60;;;;;;;;;;5020452;28;20046;-62
2024/02/19 11:07:45;;;;;;;0.95;0.60;;;;;;;;;;5029838;28;20706;-62
2024/02/19 11:10:14;;;;;;;0.90;0.60;;;;;;;;;;5029828;28;20046;-63
2024/02/19 11:12:42;;;;;;;0.50;0.50;;;;;;;;;;5030094;28;20050;-61
2024/02/19 11:15:16;;;;;;;2.55;0.93;;;;;;;;;;5029939;28;20052;-62
2024/02/19 11:17:48;;;;;;;1.27;0.80;;;;;;;;;;5029483;28;20467;-60
2024/02/19 11:20:26;;;;;;;1.17;0.63;;;;;;;;;;5029702;28;20125;-61
2024/02/19 11:22:56;;;;;;;0.85;0.47;;;;;;;;;;5030102;28;20494;-60
2024/02/19 11:25:25;;;;;;;0.50;0.50;;;;;;;;;;5030911;28;20100;-60
2024/02/19 11:27:53;;;;;;;1.38;0.70;;;;;;;;;;5030332;28;20053;-62
2024/02/19 11:30:22;;;;;;;1.73;0.50;;;;;;;;;;5029868;28;20494;-63
2024/02/19 11:33:00;;;;;;;1.27;0.63;;;;;;;;;;5029046;28;20049;-62
2024/02/19 11:35:30;;;;;;;0.60;0.60;;;;;;;;;;5030263;28;20081;-61
2024/02/19 11:38:03;;;;;;;1.25;0.60;;;;;;;;;;5030052;28;20060;-61
2024/02/19 11:40:32;;;;;;;0.50;0.50;;;;;;;;;;5029090;28;20045;-61
2024/02/19 11:43:01;;;;;;;0.90;0.68;;;;;;;;;;5027016;28;20379;-62
2024/02/19 11:45:31;;;;;;;0.75;0.60;;;;;;;;;;5035996;28;20045;-60
2024/02/19 11:48:00;;;;;;;1.35;0.70;;;;;;;;;;5030288;28;20052;-61
2024/02/19 11:50:31;;;;;;;0.60;0.60;;;;;;;;;;5029597;28;20045;-63
2024/02/19 11:53:00;;;;;;;1.85;0.82;;;;;;;;;;5036150;28;20045;-60
2024/02/19 11:55:29;;;;;;;0.63;0.60;;;;;;;;;;5027956;28;20041;-63
2024/02/19 11:58:00;;;;;;;2.72;0.50;;;;;;;;;;5029096;28;20061;-61
2024/02/19 12:00:31;;;;;;;0.52;0.52;;;;;;;;;;5024076;28;20073;-60
2024/02/19 12:03:02;;;;;;;1.33;1.00;;;;;;;;;;5029287;28;20049;-61
2024/02/19 12:05:32;;;;;;;1.75;0.68;;;;;;;;;;5028903;28;20053;-62
2024/02/19 12:08:01;;;;;;;2.47;0.80;;;;;;;;;;5025764;28;20449;-62
2024/02/19 12:10:29;;;;;;;0.57;0.57;;;;;;;;;;5025718;28;20052;-62
2024/02/19 12:12:58;;;;;;;1.40;0.80;;;;;;;;;;5029332;28;20164;-61
2024/02/19 12:15:26;;;;;;;1.88;0.63;;;;;;;;;;5029052;28;20513;-61
2024/02/19 12:17:55;;;;;;;0.60;0.60;;;;;;;;;;5029075;28;20057;-61
2024/02/19 12:20:23;;;;;;;1.23;0.70;;;;;;;;;;5028825;28;20531;-61
2024/02/19 12:22:54;;;;;;;2.13;0.80;;;;;;;;;;5028920;28;20041;-61
2024/02/19 12:25:24;;;;;;;1.45;0.60;;;;;;;;;;5029595;28;20119;-60
2024/02/19 12:27:52;;;;;;;0.77;0.60;;;;;;;;;;5028847;28;20052;-61
2024/02/19 12:30:22;;;;;;;1.55;0.60;;;;;;;;;;5028829;28;20076;-63
2024/02/19 12:32:50;;;;;;;0.70;0.60;;;;;;;;;;5028968;28;20329;-60
2024/02/19 12:35:19;;;;;;;1.23;0.80;;;;;;;;;;5029379;28;20045;-62
2024/02/19 12:37:48;;;;;;;4.25;0.73;;;;;;;;;;5028455;28;20566;-60
2024/02/19 12:40:18;;;;;;;0.68;0.60;;;;;;;;;;5028393;28;20049;-62
2024/02/19 12:42:47;;;;;;;2.30;0.57;;;;;;;;;;5028615;28;20045;-62
2024/02/19 12:45:17;;;;;;;1.48;0.60;;;;;;;;;;5027658;28;20041;-64
2024/02/19 12:47:45;;;;;;;1.52;0.80;;;;;;;;;;5028110;28;20049;-62
2024/02/19 12:50:15;;;;;;;0.98;0.65;;;;;;;;;;5023414;28;20057;-60
2024/02/19 12:52:44;;;;;;;1.90;0.70;;;;;;;;;;5027331;28;20502;-63
2024/02/19 12:55:12;;;;;;;1.45;0.77;;;;;;;;;;5036660;28;20435;-62
2024/02/19 12:57:47;;;;;;;0.70;0.70;;;;;;;;;;5016553;28;20037;-63
2024/02/19 13:00:16;;;;;;;2.95;0.70;;;;;;;;;;5028550;28;20057;-59
2024/02/19 13:02:45;;;;;;;1.20;0.60;;;;;;;;;;5031937;28;20560;-60
2024/02/19 13:05:13;;;;;;;0.80;0.60;;;;;;;;;;5026482;28;20521;-60
2024/02/19 13:07:42;;;;;;;0.88;0.50;;;;;;;;;;5027770;28;20041;-63
2024/02/19 13:10:11;;;;;;;0.52;0.50;;;;;;;;;;5027977;28;20560;-61
2024/02/19 13:12:39;;;;;;;0.75;0.50;;;;;;;;;;5027036;28;20056;-64
2024/02/19 13:15:09;;;;;;;0.50;0.50;;;;;;;;;;5021827;28;20050;-60
2024/02/19 13:17:38;;;;;;;1.27;0.70;;;;;;;;;;5026446;28;20053;-63
2024/02/19 13:20:14;;;;;;;1.48;0.80;;;;;;;;;;5027980;28;20095;-62
2024/02/19 13:22:44;;;;;;;1.38;0.70;;;;;;;;;;5028477;28;20049;-61
2024/02/19 13:25:12;;;;;;;1.00;0.60;;;;;;;;;;5028848;28;20050;-60
2024/02/19 13:27:41;;;;;;;0.80;0.70;;;;;;;;;;5029446;28;20049;-60
2024/02/19 13:30:13;;;;;;;1.60;0.52;;;;;;;;;;5031064;28;20080;-61
2024/02/19 13:32:42;;;;;;;1.45;0.70;;;;;;;;;;5032147;28;20517;-61
2024/02/19 13:35:14;;;;;;;1.00;0.70;;;;;;;;;;5027476;28;20054;-62
2024/02/19 13:37:43;;;;;;;1.13;0.70;;;;;;;;;;5031385;28;20068;-60
2024/02/19 13:40:12;;;;;;;0.57;0.57;;;;;;;;;;5030922;28;20045;-60
2024/02/19 13:42:43;;;;;;;2.00;0.82;;;;;;;;;;5033915;28;20370;-64
2024/02/19 13:45:14;;;;;;;1.25;0.70;;;;;;;;;;5031383;28;20129;-60
2024/02/19 13:47:44;;;;;;;1.75;0.70;;;;;;;;;;5032077;28;20057;-60
2024/02/19 13:50:12;;;;;;;1.02;0.70;;;;;;;;;;5030661;28;20502;-59
2024/02/19 13:52:41;;;;;;;1.13;0.60;;;;;;;;;;5030618;28;20156;-61
2024/02/19 13:55:10;;;;;;;2.08;0.60;;;;;;;;;;5031149;28;20046;-62
2024/02/19 13:57:39;;;;;;;0.50;0.50;;;;;;;;;;5034468;28;20056;-62
2024/02/19 14:00:10;;;;;;;0.90;0.60;;;;;;;;;;5029352;28;20107;-61
2024/02/19 14:02:41;;;;;;;0.50;0.50;;;;;;;;;;5031172;28;20560;-62
2024/02/19 14:05:09;;;;;;;1.35;0.60;;;;;;;;;;5031986;28;20050;-60
2024/02/19 14:07:38;;;;;;;3.58;0.70;;;;;;;;;;5031185;28;20153;-64
2024/02/19 14:10:07;;;;;;;7.13;0.70;;;;;;;;;;5031242;28;20046;-60
2024/02/19 14:12:37;;;;;;;3.80;0.70;;;;;;;;;;5026720;28;20487;-60
2024/02/19 14:15:05;;;;;;;1.98;0.88;;;;;;;;;;5030865;28;20136;-59
2024/02/19 14:17:34;;;;;;;1.30;0.52;;;;;;;;;;5031335;28;20209;-60
2024/02/19 14:20:05;;;;;;;1.23;0.50;;;;;;;;;;5029324;28;20076;-61
2024/02/19 14:22:35;;;;;;;1.15;0.60;;;;;;;;;;5030575;28;20046;-63
2024/02/19 14:25:03;;;;;;;0.40;0.40;;;;;;;;;;5038837;28;20051;-60
2024/02/19 14:27:32;;;;;;;0.50;0.50;;;;;;;;;;5032659;28;20050;-59
2024/02/19 14:30:00;;;;;;;0.55;0.43;;;;;;;;;;5031008;28;20055;-59
2024/02/19 14:32:29;;;;;;;1.75;0.50;;;;;;;;;;5030745;28;20046;-63
2024/02/19 14:34:57;;;;;;;1.55;0.52;;;;;;;;;;5030768;28;20494;-60
2024/02/19 14:37:28;;;;;;;2.17;0.60;;;;;;;;;;5025091;28;20095;-62
2024/02/19 14:39:57;;;;;;;0.60;0.60;;;;;;;;;;5030404;28;20056;-60
2024/02/19 14:42:25;;;;;;;0.82;0.60;;;;;;;;;;5031205;28;20045;-60
2024/02/19 14:44:53;;;;;;;0.57;0.55;;;;;;;;;;5030212;28;20472;-61
2024/02/19 14:47:22;;;;;;;1.77;0.60;;;;;;;;;;5030429;28;20045;-63
2024/02/19 14:49:50;;;;;;;1.58;0.57;;;;;;;;;;5029495;28;20050;-60
2024/02/19 14:52:19;;;;;;;0.50;0.50;;;;;;;;;;5030105;28;20479;-60
2024/02/19 14:54:49;;;;;;;2.85;0.88;;;;;;;;;;5027023;28;20052;-62